sensor_id;sensor_type;location;lat;lon;timestamp;pressure;altitude;pressure_sealevel;temperature;humidity
48204;BME280;33994;50.998;5.864;2024-03-23T00:54:17;100594.53;;;6.47;98.73
48204;BME280;33994;50.998;5.864;2024-03-23T00:57:21;100587.66;;;6.42;97.74
48204;BME280;33994;50.998;5.864;2024-03-23T01:00:24;100584.19;;;6.41;97.72
48204;BME280;33994;50.998;5.864;2024-03-23T01:03:27;100582.44;;;6.40;97.51
48204;BME280;33994;50.998;5.864;2024-03-23T01:06:31;100574.66;;;6.42;97.86
48204;BME280;33994;50.998;5.864;2024-03-23T01:09:36;100578.13;;;6.45;98.42
48204;BME280;33994;50.998;5.864;2024-03-23T01:12:39;100579.84;;;6.43;98.38
48204;BME280;33994;50.998;5.864;2024-03-23T01:15:48;100568.59;;;6.43;98.42
48204;BME280;33994;50.998;5.864;2024-03-23T01:18:51;100574.63;;;6.46;98.49
48204;BME280;33994;50.998;5.864;2024-03-23T01:21:54;100571.16;;;6.47;98.36
48204;BME280;33994;50.998;5.864;2024-03-23T01:24:58;100576.34;;;6.47;98.41
48204;BME280;33994;50.998;5.864;2024-03-23T01:28:01;100579.00;;;6.44;98.65
48204;BME280;33994;50.998;5.864;2024-03-23T01:31:04;100573.78;;;6.44;99.94
48204;BME280;33994;50.998;5.864;2024-03-23T01:34:08;100560.78;;;6.49;100.00
48204;BME280;33994;50.998;5.864;2024-03-23T01:37:11;100553.84;;;6.51;100.00
48204;BME280;33994;50.998;5.864;2024-03-23T01:40:17;100541.72;;;6.50;99.92
48204;BME280;33994;50.998;5.864;2024-03-23T01:43:20;100547.78;;;6.50;100.00
48204;BME280;33994;50.998;5.864;2024-03-23T01:46:23;100544.34;;;6.45;100.00
48204;BME280;33994;50.998;5.864;2024-03-23T01:49:27;100552.13;;;6.42;100.00
48204;BME280;33994;50.998;5.864;2024-03-23T01:52:30;100550.41;;;6.38;100.00
48204;BME280;33994;50.998;5.864;2024-03-23T01:55:34;100553.00;;;6.40;100.00
48204;BME280;33994;50.998;5.864;2024-03-23T01:58:37;100552.16;;;6.38;100.00
48204;BME280;33994;50.998;5.864;2024-03-23T02:01:41;100559.06;;;6.36;100.00
48204;BME280;33994;50.998;5.864;2024-03-23T02:04:44;100552.16;;;6.31;100.00
48204;BME280;33994;50.998;5.864;2024-03-23T02:07:47;100537.44;;;6.33;100.00
48204;BME280;33994;50.998;5.864;2024-03-23T02:10:51;100518.41;;;6.30;100.00
48204;BME280;33994;50.998;5.864;2024-03-23T02:13:54;100504.56;;;6.26;100.00
48204;BME280;33994;50.998;5.864;2024-03-23T02:16:57;100518.41;;;6.27;100.00
48204;BME280;33994;50.998;5.864;2024-03-23T02:20:01;100538.31;;;6.25;100.00
48204;BME280;33994;50.998;5.864;2024-03-23T02:23:05;100539.19;;;6.24;100.00
48204;BME280;33994;50.998;5.864;2024-03-23T02:26:08;100548.72;;;6.22;100.00
48204;BME280;33994;50.998;5.864;2024-03-23T02:29:12;100548.72;;;6.20;100.00
48204;BME280;33994;50.998;5.864;2024-03-23T02:32:15;100527.06;;;6.17;100.00
48204;BME280;33994;50.998;5.864;2024-03-23T02:35:19;100504.56;;;6.09;100.00
48204;BME280;33994;50.998;5.864;2024-03-23T02:38:23;100513.25;;;6.08;100.00
48204;BME280;33994;50.998;5.864;2024-03-23T02:41:27;100517.56;;;6.09;100.00
48204;BME280;33994;50.998;5.864;2024-03-23T02:44:30;100516.69;;;6.09;100.00
48204;BME280;33994;50.998;5.864;2024-03-23T02:47:33;100520.16;;;6.09;100.00
48204;BME280;33994;50.998;5.864;2024-03-23T02:50:36;100513.25;;;6.12;100.00
48204;BME280;33994;50.998;5.864;2024-03-23T02:53:41;100508.03;;;6.08;100.00
48204;BME280;33994;50.998;5.864;2024-03-23T02:56:44;100502.84;;;6.05;100.00
48204;BME280;33994;50.998;5.864;2024-03-23T02:59:47;100508.06;;;6.02;100.00
48204;BME280;33994;50.998;5.864;2024-03-23T03:02:50;100521.03;;;6.05;100.00
48204;BME280;33994;50.998;5.864;2024-03-23T03:05:55;100520.16;;;6.08;100.00
48204;BME280;33994;50.998;5.864;2024-03-23T03:08:59;100523.63;;;6.05;100.00
48204;BME280;33994;50.998;5.864;2024-03-23T03:12:03;100532.28;;;6.07;100.00
48204;BME280;33994;50.998;5.864;2024-03-23T03:15:06;100547.84;;;6.12;100.00
48204;BME280;33994;50.998;5.864;2024-03-23T03:18:09;100552.19;;;6.18;100.00
48204;BME280;33994;50.998;5.864;2024-03-23T03:21:12;100539.22;;;6.18;100.00
48204;BME280;33994;50.998;5.864;2024-03-23T03:24:17;100540.06;;;6.20;100.00
48204;BME280;33994;50.998;5.864;2024-03-23T03:27:20;100530.53;;;6.17;100.00
48204;BME280;33994;50.998;5.864;2024-03-23T03:30:23;100549.59;;;6.18;100.00
48204;BME280;33994;50.998;5.864;2024-03-23T03:33:26;100551.34;;;6.14;100.00
48204;BME280;33994;50.998;5.864;2024-03-23T03:36:30;100546.13;;;6.08;100.00
48204;BME280;33994;50.998;5.864;2024-03-23T03:39:35;100560.00;;;6.07;100.00
48204;BME280;33994;50.998;5.864;2024-03-23T03:42:38;100546.16;;;6.06;100.00
48204;BME280;33994;50.998;5.864;2024-03-23T03:45:41;100558.25;;;6.04;100.00
48204;BME280;33994;50.998;5.864;2024-03-23T03:48:44;100547.00;;;6.04;100.00
48204;BME280;33994;50.998;5.864;2024-03-23T03:51:47;100542.66;;;6.01;100.00
48204;BME280;33994;50.998;5.864;2024-03-23T03:54:59;100533.16;;;5.99;100.00
48204;BME280;33994;50.998;5.864;2024-03-23T03:58:04;100527.97;;;5.94;100.00
48204;BME280;33994;50.998;5.864;2024-03-23T04:01:07;100532.31;;;5.92;100.00
48204;BME280;33994;50.998;5.864;2024-03-23T04:04:10;100534.03;;;5.92;100.00
48204;BME280;33994;50.998;5.864;2024-03-23T04:07:13;100534.03;;;5.96;100.00
48204;BME280;33994;50.998;5.864;2024-03-23T04:10:18;100528.84;;;5.96;100.00
48204;BME280;33994;50.998;5.864;2024-03-23T04:13:21;100532.28;;;5.94;100.00
48204;BME280;33994;50.998;5.864;2024-03-23T04:16:27;100540.09;;;5.95;100.00
48204;BME280;33994;50.998;5.864;2024-03-23T04:19:30;100535.75;;;5.94;100.00
48204;BME280;33994;50.998;5.864;2024-03-23T04:22:33;100527.09;;;5.89;100.00
48204;BME280;33994;50.998;5.864;2024-03-23T04:25:38;100526.25;;;5.87;100.00
48204;BME280;33994;50.998;5.864;2024-03-23T04:28:41;100523.66;;;5.87;100.00
48204;BME280;33994;50.998;5.864;2024-03-23T04:31:44;100529.72;;;5.88;100.00
48204;BME280;33994;50.998;5.864;2024-03-23T04:34:47;100522.78;;;5.87;100.00
48204;BME280;33994;50.998;5.864;2024-03-23T04:37:51;100516.75;;;5.83;100.00
48204;BME280;33994;50.998;5.864;2024-03-23T04:40:56;100521.06;;;5.79;100.00
48204;BME280;33994;50.998;5.864;2024-03-23T04:43:59;100515.88;;;5.78;100.00
48204;BME280;33994;50.998;5.864;2024-03-23T04:47:02;100521.94;;;5.77;100.00
48204;BME280;33994;50.998;5.864;2024-03-23T04:50:05;100515.00;;;5.74;100.00
48204;BME280;33994;50.998;5.864;2024-03-23T04:53:08;100513.28;;;5.73;100.00
48204;BME280;33994;50.998;5.864;2024-03-23T04:56:13;100516.72;;;5.71;100.00
48204;BME280;33994;50.998;5.864;2024-03-23T04:59:16;100524.53;;;5.69;100.00
48204;BME280;33994;50.998;5.864;2024-03-23T05:02:19;100519.34;;;5.69;100.00
48204;BME280;33994;50.998;5.864;2024-03-23T05:05:22;100524.50;;;5.68;100.00
48204;BME280;33994;50.998;5.864;2024-03-23T05:08:26;100521.06;;;5.63;100.00
48204;BME280;33994;50.998;5.864;2024-03-23T05:11:30;100531.41;;;5.59;100.00
48204;BME280;33994;50.998;5.864;2024-03-23T05:14:33;100537.47;;;5.58;100.00
48204;BME280;33994;50.998;5.864;2024-03-23T05:17:37;100539.22;;;5.56;100.00
48204;BME280;33994;50.998;5.864;2024-03-23T05:20:41;100528.84;;;5.50;100.00
48204;BME280;33994;50.998;5.864;2024-03-23T05:23:44;100525.34;;;5.48;100.00
48204;BME280;33994;50.998;5.864;2024-03-23T05:26:48;100535.72;;;5.48;100.00
48204;BME280;33994;50.998;5.864;2024-03-23T05:29:51;100528.81;;;5.47;100.00
48204;BME280;33994;50.998;5.864;2024-03-23T05:32:54;100532.28;;;5.46;100.00
48204;BME280;33994;50.998;5.864;2024-03-23T05:35:58;100527.94;;;5.44;100.00
48204;BME280;33994;50.998;5.864;2024-03-23T05:39:03;100529.69;;;5.43;100.00
48204;BME280;33994;50.998;5.864;2024-03-23T05:42:07;100532.28;;;5.40;100.00
48204;BME280;33994;50.998;5.864;2024-03-23T05:45:10;100526.22;;;5.37;100.00
48204;BME280;33994;50.998;5.864;2024-03-23T05:48:13;100518.44;;;5.35;100.00
48204;BME280;33994;50.998;5.864;2024-03-23T05:51:16;100529.69;;;5.34;100.00
48204;BME280;33994;50.998;5.864;2024-03-23T05:54:20;100533.16;;;5.38;100.00
48204;BME280;33994;50.998;5.864;2024-03-23T05:57:24;100529.69;;;5.42;100.00
48204;BME280;33994;50.998;5.864;2024-03-23T06:00:27;100540.06;;;5.48;100.00
48204;BME280;33994;50.998;5.864;2024-03-23T06:03:31;100541.81;;;5.55;100.00
48204;BME280;33994;50.998;5.864;2024-03-23T06:06:34;100540.09;;;5.62;100.00
48204;BME280;33994;50.998;5.864;2024-03-23T06:09:37;100541.81;;;5.70;100.00
48204;BME280;33994;50.998;5.864;2024-03-23T06:12:42;100550.47;;;5.78;100.00
48204;BME280;33994;50.998;5.864;2024-03-23T06:15:45;100560.00;;;5.87;100.00
48204;BME280;33994;50.998;5.864;2024-03-23T06:18:48;100567.75;;;5.98;100.00
48204;BME280;33994;50.998;5.864;2024-03-23T06:21:51;100569.47;;;6.09;100.00
48204;BME280;33994;50.998;5.864;2024-03-23T06:24:55;100566.00;;;6.24;100.00
48204;BME280;33994;50.998;5.864;2024-03-23T06:27:59;100587.66;;;6.37;100.00
48204;BME280;33994;50.998;5.864;2024-03-23T06:31:03;100609.28;;;6.48;100.00
48204;BME280;33994;50.998;5.864;2024-03-23T06:34:05;100617.09;;;6.48;100.00
48204;BME280;33994;50.998;5.864;2024-03-23T06:37:08;100637.00;;;6.39;100.00
48204;BME280;33994;50.998;5.864;2024-03-23T06:40:12;100605.84;;;6.23;97.63
48204;BME280;33994;50.998;5.864;2024-03-23T06:43:17;100568.63;;;6.20;96.44
48204;BME280;33994;50.998;5.864;2024-03-23T06:46:20;100562.56;;;6.16;96.69
48204;BME280;33994;50.998;5.864;2024-03-23T06:49:23;100559.97;;;6.15;96.66
48204;BME280;33994;50.998;5.864;2024-03-23T06:52:27;100566.06;;;6.06;95.63
48204;BME280;33994;50.998;5.864;2024-03-23T06:55:30;100559.13;;;6.00;94.61
48204;BME280;33994;50.998;5.864;2024-03-23T06:58:34;100556.53;;;5.88;93.89
48204;BME280;33994;50.998;5.864;2024-03-23T07:01:38;100553.91;;;5.79;93.06
48204;BME280;33994;50.998;5.864;2024-03-23T07:04:41;100562.56;;;5.78;92.17
48204;BME280;33994;50.998;5.864;2024-03-23T07:07:44;100559.13;;;5.91;91.42
48204;BME280;33994;50.998;5.864;2024-03-23T07:10:47;100564.31;;;6.08;91.40
48204;BME280;33994;50.998;5.864;2024-03-23T07:13:52;100559.97;;;6.27;91.69
48204;BME280;33994;50.998;5.864;2024-03-23T07:16:55;100571.19;;;6.44;91.80
48204;BME280;33994;50.998;5.864;2024-03-23T07:19:59;100556.41;;;6.58;91.83
48204;BME280;33994;50.998;5.864;2024-03-23T07:23:02;100559.84;;;6.73;91.82
48204;BME280;33994;50.998;5.864;2024-03-23T07:26:06;100561.53;;;6.86;92.62
48204;BME280;33994;50.998;5.864;2024-03-23T07:29:10;100560.59;;;7.01;93.46
48204;BME280;33994;50.998;5.864;2024-03-23T07:32:13;100556.22;;;7.14;94.39
48204;BME280;33994;50.998;5.864;2024-03-23T07:35:17;100564.81;;;7.25;95.38
48204;BME280;33994;50.998;5.864;2024-03-23T07:38:20;100560.44;;;7.36;95.90
48204;BME280;33994;50.998;5.864;2024-03-23T07:41:24;100561.28;;;7.44;96.04
48204;BME280;33994;50.998;5.864;2024-03-23T07:44:28;100561.22;;;7.55;96.35
48204;BME280;33994;50.998;5.864;2024-03-23T07:47:31;100555.03;;;7.65;96.11
48204;BME280;33994;50.998;5.864;2024-03-23T07:50:34;100563.69;;;7.69;94.99
48204;BME280;33994;50.998;5.864;2024-03-23T07:53:37;100555.84;;;7.73;94.96
48204;BME280;33994;50.998;5.864;2024-03-23T07:56:41;100565.38;;;7.79;94.48
48204;BME280;33994;50.998;5.864;2024-03-23T07:59:45;100565.31;;;7.84;94.46
48204;BME280;33994;50.998;5.864;2024-03-23T08:02:50;100568.78;;;7.84;94.38
48204;BME280;33994;50.998;5.864;2024-03-23T08:05:53;100567.88;;;7.88;93.88
48204;BME280;33994;50.998;5.864;2024-03-23T08:08:57;100569.63;;;7.91;93.62
48204;BME280;33994;50.998;5.864;2024-03-23T08:12:00;100575.66;;;7.94;93.26
48204;BME280;33994;50.998;5.864;2024-03-23T08:15:06;100573.03;;;7.97;92.92
48204;BME280;33994;50.998;5.864;2024-03-23T08:18:09;100573.06;;;7.91;92.38
48204;BME280;33994;50.998;5.864;2024-03-23T08:21:12;100583.50;;;7.91;91.95
48204;BME280;33994;50.998;5.864;2024-03-23T08:24:16;100590.47;;;7.88;91.58
48204;BME280;33994;50.998;5.864;2024-03-23T08:27:19;100583.56;;;7.82;90.94
48204;BME280;33994;50.998;5.864;2024-03-23T08:30:24;100584.44;;;7.81;90.59
48204;BME280;33994;50.998;5.864;2024-03-23T08:33:27;100580.09;;;7.80;90.10
48204;BME280;33994;50.998;5.864;2024-03-23T08:36:30;100588.72;;;7.85;90.24
48204;BME280;33994;50.998;5.864;2024-03-23T08:39:33;100573.97;;;7.90;90.24
48204;BME280;33994;50.998;5.864;2024-03-23T08:42:37;100580.88;;;7.91;88.53
48204;BME280;33994;50.998;5.864;2024-03-23T08:45:41;100581.75;;;7.93;87.82
48204;BME280;33994;50.998;5.864;2024-03-23T08:48:46;100574.78;;;7.95;87.49
48204;BME280;33994;50.998;5.864;2024-03-23T08:51:49;100577.38;;;7.97;86.76
48204;BME280;33994;50.998;5.864;2024-03-23T08:54:52;100585.19;;;7.98;85.74
48204;BME280;33994;50.998;5.864;2024-03-23T08:57:55;100578.19;;;8.03;85.07
48204;BME280;33994;50.998;5.864;2024-03-23T09:01:05;100578.16;;;8.07;82.82
48204;BME280;33994;50.998;5.864;2024-03-23T09:04:08;100572.06;;;8.09;82.85
48204;BME280;33994;50.998;5.864;2024-03-23T09:07:12;100575.50;;;8.11;83.08
48204;BME280;33994;50.998;5.864;2024-03-23T09:10:15;100566.81;;;8.14;83.17
48204;BME280;33994;50.998;5.864;2024-03-23T09:13:18;100557.22;;;8.17;81.09
48204;BME280;33994;50.998;5.864;2024-03-23T09:16:22;100557.16;;;8.25;80.73
48204;BME280;33994;50.998;5.864;2024-03-23T09:19:27;100558.81;;;8.35;80.15
48204;BME280;33994;50.998;5.864;2024-03-23T09:22:30;100548.25;;;8.47;79.25
48204;BME280;33994;50.998;5.864;2024-03-23T09:25:36;100556.84;;;8.56;78.61
48204;BME280;33994;50.998;5.864;2024-03-23T09:28:39;100547.25;;;8.59;77.50
48204;BME280;33994;50.998;5.864;2024-03-23T09:31:43;100548.88;;;8.68;77.76
48204;BME280;33994;50.998;5.864;2024-03-23T09:34:47;100538.44;;;8.69;78.38
48204;BME280;33994;50.998;5.864;2024-03-23T09:37:50;100544.53;;;8.70;77.80
48204;BME280;33994;50.998;5.864;2024-03-23T09:40:53;100550.59;;;8.70;78.05
48204;BME280;33994;50.998;5.864;2024-03-23T09:43:56;100542.75;;;8.72;77.69
48204;BME280;33994;50.998;5.864;2024-03-23T09:47:01;100549.69;;;8.71;77.09
48204;BME280;33994;50.998;5.864;2024-03-23T09:50:05;100552.31;;;8.71;76.80
48204;BME280;33994;50.998;5.864;2024-03-23T09:53:10;100553.19;;;8.70;75.18
48204;BME280;33994;50.998;5.864;2024-03-23T09:56:13;100553.19;;;8.70;75.63
48204;BME280;33994;50.998;5.864;2024-03-23T09:59:16;100559.31;;;8.69;75.83
48204;BME280;33994;50.998;5.864;2024-03-23T10:02:21;100556.72;;;8.65;76.07
48204;BME280;33994;50.998;5.864;2024-03-23T10:05:24;100552.44;;;8.62;76.11
48204;BME280;33994;50.998;5.864;2024-03-23T10:08:28;100548.97;;;8.60;75.26
48204;BME280;33994;50.998;5.864;2024-03-23T10:11:32;100549.00;;;8.59;74.08
48204;BME280;33994;50.998;5.864;2024-03-23T10:14:35;100549.81;;;8.61;73.37
48204;BME280;33994;50.998;5.864;2024-03-23T10:17:39;100555.03;;;8.62;73.18
48204;BME280;33994;50.998;5.864;2024-03-23T10:20:43;100552.44;;;8.62;72.59
48204;BME280;33994;50.998;5.864;2024-03-23T10:23:46;100556.69;;;8.68;72.23
48204;BME280;33994;50.998;5.864;2024-03-23T10:26:55;100547.97;;;8.73;71.14
48204;BME280;33994;50.998;5.864;2024-03-23T10:30:07;100546.22;;;8.72;70.59
48204;BME280;33994;50.998;5.864;2024-03-23T10:33:12;100545.38;;;8.69;70.12
48204;BME280;33994;50.998;5.864;2024-03-23T10:36:16;100530.66;;;8.66;70.26
48204;BME280;33994;50.998;5.864;2024-03-23T10:39:20;100550.72;;;8.60;70.57
48204;BME280;33994;50.998;5.864;2024-03-23T10:42:24;100552.59;;;8.45;69.24
48204;BME280;33994;50.998;5.864;2024-03-23T10:45:28;100544.94;;;8.30;70.37
48204;BME280;33994;50.998;5.864;2024-03-23T10:48:32;100539.78;;;8.25;71.56
48204;BME280;33994;50.998;5.864;2024-03-23T10:51:37;100540.69;;;8.21;73.05
48204;BME280;33994;50.998;5.864;2024-03-23T10:54:41;100539.81;;;8.22;74.28
48204;BME280;33994;50.998;5.864;2024-03-23T10:57:50;100539.75;;;8.27;75.10
48204;BME280;33994;50.998;5.864;2024-03-23T11:00:54;100535.41;;;8.29;74.33
48204;BME280;33994;50.998;5.864;2024-03-23T11:03:58;100531.88;;;8.33;73.61
48204;BME280;33994;50.998;5.864;2024-03-23T11:07:02;100522.22;;;8.41;73.61
48204;BME280;33994;50.998;5.864;2024-03-23T11:10:24;100520.34;;;8.56;71.99
48204;BME280;33994;50.998;5.864;2024-03-23T11:13:27;100525.41;;;8.68;70.38
48204;BME280;33994;50.998;5.864;2024-03-23T11:16:30;100557.44;;;8.81;67.69
48204;BME280;33994;50.998;5.864;2024-03-23T11:19:36;100593.97;;;8.77;65.62
48204;BME280;33994;50.998;5.864;2024-03-23T11:22:43;100612.44;;;8.56;69.09
48204;BME280;33994;50.998;5.864;2024-03-23T11:25:47;100621.50;;;8.14;71.17
48204;BME280;33994;50.998;5.864;2024-03-23T11:28:50;100627.09;;;7.63;73.21
48204;BME280;33994;50.998;5.864;2024-03-23T11:31:53;100623.78;;;7.26;75.49
48204;BME280;33994;50.998;5.864;2024-03-23T11:34:57;100623.91;;;6.98;77.56
48204;BME280;33994;50.998;5.864;2024-03-23T11:38:05;100622.22;;;6.79;79.45
48204;BME280;33994;50.998;5.864;2024-03-23T11:41:08;100600.59;;;6.60;80.80
48204;BME280;33994;50.998;5.864;2024-03-23T11:44:15;100590.22;;;6.46;82.24
48204;BME280;33994;50.998;5.864;2024-03-23T11:47:19;100585.91;;;6.45;83.15
48204;BME280;33994;50.998;5.864;2024-03-23T11:50:23;100575.53;;;6.48;83.90
48204;BME280;33994;50.998;5.864;2024-03-23T11:53:26;100569.44;;;6.55;83.83
48204;BME280;33994;50.998;5.864;2024-03-23T11:56:29;100559.84;;;6.70;84.98
48204;BME280;33994;50.998;5.864;2024-03-23T11:59:33;100578.00;;;6.85;85.85
48204;BME280;33994;50.998;5.864;2024-03-23T12:02:36;100588.38;;;6.94;84.90
48204;BME280;33994;50.998;5.864;2024-03-23T12:05:41;100572.75;;;6.90;83.78
48204;BME280;33994;50.998;5.864;2024-03-23T12:08:44;100530.34;;;6.83;83.45
48204;BME280;33994;50.998;5.864;2024-03-23T12:11:48;100538.13;;;6.85;80.90
48204;BME280;33994;50.998;5.864;2024-03-23T12:15:01;100541.56;;;6.93;82.79
48204;BME280;33994;50.998;5.864;2024-03-23T12:18:08;100536.31;;;7.03;82.79
48204;BME280;33994;50.998;5.864;2024-03-23T12:21:13;100535.41;;;7.14;82.72
48204;BME280;33994;50.998;5.864;2024-03-23T12:24:16;100537.94;;;7.23;82.60
48204;BME280;33994;50.998;5.864;2024-03-23T12:27:19;100545.72;;;7.29;82.27
48204;BME280;33994;50.998;5.864;2024-03-23T12:30:22;100553.47;;;7.37;82.64
48204;BME280;33994;50.998;5.864;2024-03-23T12:33:25;100557.81;;;7.39;83.35
48204;BME280;33994;50.998;5.864;2024-03-23T12:36:30;100545.72;;;7.32;84.07
48204;BME280;33994;50.998;5.864;2024-03-23T12:39:33;100564.81;;;7.25;83.87
48204;BME280;33994;50.998;5.864;2024-03-23T12:42:36;100560.50;;;7.21;81.94
48204;BME280;33994;50.998;5.864;2024-03-23T12:45:40;100560.50;;;7.19;80.51
48204;BME280;33994;50.998;5.864;2024-03-23T12:48:44;100523.25;;;7.13;78.78
48204;BME280;33994;50.998;5.864;2024-03-23T12:51:53;100525.06;;;7.00;76.17
48204;BME280;33994;50.998;5.864;2024-03-23T12:54:56;100526.81;;;6.96;76.66
48204;BME280;33994;50.998;5.864;2024-03-23T12:57:59;100524.22;;;6.98;77.23
48204;BME280;33994;50.998;5.864;2024-03-23T13:01:03;100505.03;;;7.16;79.54
48204;BME280;33994;50.998;5.864;2024-03-23T13:04:06;100504.09;;;7.29;79.02
48204;BME280;33994;50.998;5.864;2024-03-23T13:07:10;100498.84;;;7.41;76.33
48204;BME280;33994;50.998;5.864;2024-03-23T13:10:13;100495.31;;;7.51;76.91
48204;BME280;33994;50.998;5.864;2024-03-23T13:13:17;100492.63;;;7.59;75.64
48204;BME280;33994;50.998;5.864;2024-03-23T13:16:20;100486.50;;;7.65;74.78
48204;BME280;33994;50.998;5.864;2024-03-23T13:19:23;100480.38;;;7.72;75.00
48204;BME280;33994;50.998;5.864;2024-03-23T13:22:28;100467.22;;;7.87;76.65
48204;BME280;33994;50.998;5.864;2024-03-23T13:25:31;100471.47;;;7.97;74.97
48204;BME280;33994;50.998;5.864;2024-03-23T13:28:34;100460.09;;;8.06;74.40
48204;BME280;33994;50.998;5.864;2024-03-23T13:31:38;100463.50;;;8.13;73.17
48204;BME280;33994;50.998;5.864;2024-03-23T13:34:41;100475.59;;;8.20;72.17
48204;BME280;33994;50.998;5.864;2024-03-23T13:37:45;100500.13;;;7.96;72.53
48204;BME280;33994;50.998;5.864;2024-03-23T13:40:53;100492.56;;;7.68;75.45
48204;BME280;33994;50.998;5.864;2024-03-23T13:43:57;100479.63;;;7.54;77.48
48204;BME280;33994;50.998;5.864;2024-03-23T13:47:00;100484.97;;;7.36;76.66
48204;BME280;33994;50.998;5.864;2024-03-23T13:50:04;100476.38;;;7.28;78.21
48204;BME280;33994;50.998;5.864;2024-03-23T13:53:09;100479.84;;;7.24;79.28
48204;BME280;33994;50.998;5.864;2024-03-23T13:56:12;100475.50;;;7.26;80.64
48204;BME280;33994;50.998;5.864;2024-03-23T13:59:15;100489.31;;;7.31;80.51
48204;BME280;33994;50.998;5.864;2024-03-23T14:02:18;100483.31;;;7.24;80.61
48204;BME280;33994;50.998;5.864;2024-03-23T14:05:22;100505.91;;;7.18;81.82
48204;BME280;33994;50.998;5.864;2024-03-23T14:08:27;100523.31;;;7.00;82.15
48204;BME280;33994;50.998;5.864;2024-03-23T14:11:30;100533.78;;;6.94;83.70
48204;BME280;33994;50.998;5.864;2024-03-23T14:14:33;100532.06;;;6.90;83.45
48204;BME280;33994;50.998;5.864;2024-03-23T14:17:36;100505.13;;;6.97;82.17
48204;BME280;33994;50.998;5.864;2024-03-23T14:20:39;100487.75;;;7.07;81.46
48204;BME280;33994;50.998;5.864;2024-03-23T14:23:44;100486.88;;;7.05;80.53
48204;BME280;33994;50.998;5.864;2024-03-23T14:26:46;100479.97;;;7.04;80.98
48204;BME280;33994;50.998;5.864;2024-03-23T14:29:50;100474.72;;;7.15;82.26
48204;BME280;33994;50.998;5.864;2024-03-23T14:32:53;100472.88;;;7.27;82.11
48204;BME280;33994;50.998;5.864;2024-03-23T14:35:56;100464.16;;;7.36;81.10
48204;BME280;33994;50.998;5.864;2024-03-23T14:39:01;100455.50;;;7.37;77.14
48204;BME280;33994;50.998;5.864;2024-03-23T14:42:05;100456.38;;;7.38;78.69
48204;BME280;33994;50.998;5.864;2024-03-23T14:45:08;100451.13;;;7.42;79.24
48204;BME280;33994;50.998;5.864;2024-03-23T14:48:12;100458.06;;;7.43;78.84
48204;BME280;33994;50.998;5.864;2024-03-23T14:51:16;100460.69;;;7.43;79.37
48204;BME280;33994;50.998;5.864;2024-03-23T14:54:20;100477.16;;;7.39;78.86
48204;BME280;33994;50.998;5.864;2024-03-23T14:57:24;100475.44;;;7.40;79.92
48204;BME280;33994;50.998;5.864;2024-03-23T15:00:27;100471.13;;;7.31;79.04
48204;BME280;33994;50.998;5.864;2024-03-23T15:03:30;100465.09;;;7.29;79.21
48204;BME280;33994;50.998;5.864;2024-03-23T15:06:34;100473.78;;;7.25;78.95
48204;BME280;33994;50.998;5.864;2024-03-23T15:09:39;100485.13;;;7.12;79.63
48204;BME280;33994;50.998;5.864;2024-03-23T15:12:42;100466.19;;;6.91;80.26
48204;BME280;33994;50.998;5.864;2024-03-23T15:15:45;100469.69;;;6.81;82.16
48204;BME280;33994;50.998;5.864;2024-03-23T15:18:48;100455.00;;;6.78;83.25
48204;BME280;33994;50.998;5.864;2024-03-23T15:21:52;100449.75;;;6.85;84.29
48204;BME280;33994;50.998;5.864;2024-03-23T15:24:57;100446.22;;;6.93;84.84
48204;BME280;33994;50.998;5.864;2024-03-23T15:28:00;100434.06;;;7.00;84.47
48204;BME280;33994;50.998;5.864;2024-03-23T15:31:03;100427.94;;;7.09;84.51
48204;BME280;33994;50.998;5.864;2024-03-23T15:34:06;100427.03;;;7.14;83.87
48204;BME280;33994;50.998;5.864;2024-03-23T15:37:09;100423.56;;;7.17;83.53
48204;BME280;33994;50.998;5.864;2024-03-23T15:40:16;100419.22;;;7.13;82.10
48204;BME280;33994;50.998;5.864;2024-03-23T15:43:19;100408.00;;;7.11;81.87
48204;BME280;33994;50.998;5.864;2024-03-23T15:46:23;100406.25;;;7.08;81.38
48204;BME280;33994;50.998;5.864;2024-03-23T15:49:27;100401.97;;;7.05;81.36
48204;BME280;33994;50.998;5.864;2024-03-23T15:52:31;100408.91;;;7.03;81.90
48204;BME280;33994;50.998;5.864;2024-03-23T15:55:36;100408.03;;;7.04;82.19
48204;BME280;33994;50.998;5.864;2024-03-23T15:58:39;100403.72;;;7.02;82.70
48204;BME280;33994;50.998;5.864;2024-03-23T16:01:43;100396.78;;;7.02;82.39
48204;BME280;33994;50.998;5.864;2024-03-23T16:04:45;100403.69;;;7.03;81.38
48204;BME280;33994;50.998;5.864;2024-03-23T16:07:48;100393.28;;;7.06;81.03
48204;BME280;33994;50.998;5.864;2024-03-23T16:10:54;100398.47;;;7.10;80.87
48204;BME280;33994;50.998;5.864;2024-03-23T16:13:57;100401.88;;;7.15;81.50
48204;BME280;33994;50.998;5.864;2024-03-23T16:17:00;100395.81;;;7.17;81.74
48204;BME280;33994;50.998;5.864;2024-03-23T16:20:04;100395.78;;;7.19;81.46
48204;BME280;33994;50.998;5.864;2024-03-23T16:23:08;100386.28;;;7.15;81.31
48204;BME280;33994;50.998;5.864;2024-03-23T16:26:12;100387.13;;;7.15;80.61
48204;BME280;33994;50.998;5.864;2024-03-23T16:29:16;100381.09;;;7.15;80.17
48204;BME280;33994;50.998;5.864;2024-03-23T16:32:19;100377.63;;;7.13;80.54
48204;BME280;33994;50.998;5.864;2024-03-23T16:35:22;100380.22;;;7.14;80.30
48204;BME280;33994;50.998;5.864;2024-03-23T16:38:26;100368.94;;;7.17;80.56
48204;BME280;33994;50.998;5.864;2024-03-23T16:41:30;100366.34;;;7.15;79.91
48204;BME280;33994;50.998;5.864;2024-03-23T16:44:33;100365.47;;;7.18;80.17
48204;BME280;33994;50.998;5.864;2024-03-23T16:47:37;100361.97;;;7.19;80.33
48204;BME280;33994;50.998;5.864;2024-03-23T16:50:40;100363.69;;;7.20;81.19
48204;BME280;33994;50.998;5.864;2024-03-23T16:53:43;100359.31;;;7.23;81.15
48204;BME280;33994;50.998;5.864;2024-03-23T16:56:48;100358.50;;;7.20;81.12
48204;BME280;33994;50.998;5.864;2024-03-23T16:59:51;100350.69;;;7.21;80.33
48204;BME280;33994;50.998;5.864;2024-03-23T17:02:54;100358.50;;;7.20;79.80